sensor_id;sensor_type;location;lat;lon;timestamp;temperature;humidity
24800;DHT22;12897;50.812;4.430;2022-07-23T00:01:35;17.50;99.90
24800;DHT22;12897;50.812;4.430;2022-07-23T00:04:03;17.50;99.90
24800;DHT22;12897;50.812;4.430;2022-07-23T00:06:30;17.60;99.90
24800;DHT22;12897;50.812;4.430;2022-07-23T00:08:58;17.60;99.90
24800;DHT22;12897;50.812;4.430;2022-07-23T00:11:25;17.70;99.90
24800;DHT22;12897;50.812;4.430;2022-07-23T00:13:53;17.70;99.90
24800;DHT22;12897;50.812;4.430;2022-07-23T00:16:21;17.70;99.90
24800;DHT22;12897;50.812;4.430;2022-07-23T00:18:49;17.70;99.90
24800;DHT22;12897;50.812;4.430;2022-07-23T00:21:16;17.60;99.90
24800;DHT22;12897;50.812;4.430;2022-07-23T00:23:44;17.60;99.90
24800;DHT22;12897;50.812;4.430;2022-07-23T00:26:11;17.50;99.90
24800;DHT22;12897;50.812;4.430;2022-07-23T00:28:39;17.50;99.90
24800;DHT22;12897;50.812;4.430;2022-07-23T00:31:06;17.50;99.90
24800;DHT22;12897;50.812;4.430;2022-07-23T00:33:34;17.30;99.90
24800;DHT22;12897;50.812;4.430;2022-07-23T00:36:01;17.30;99.90
24800;DHT22;12897;50.812;4.430;2022-07-23T00:38:29;17.30;99.90
24800;DHT22;12897;50.812;4.430;2022-07-23T00:40:57;17.20;99.90
24800;DHT22;12897;50.812;4.430;2022-07-23T00:43:25;17.30;99.90
24800;DHT22;12897;50.812;4.430;2022-07-23T00:45:52;17.10;99.90
24800;DHT22;12897;50.812;4.430;2022-07-23T00:48:20;17.10;99.90
24800;DHT22;12897;50.812;4.430;2022-07-23T00:50:48;17.10;99.90
24800;DHT22;12897;50.812;4.430;2022-07-23T00:53:17;17.20;99.90
24800;DHT22;12897;50.812;4.430;2022-07-23T00:55:44;17.30;99.90
24800;DHT22;12897;50.812;4.430;2022-07-23T00:58:12;17.40;99.90
24800;DHT22;12897;50.812;4.430;2022-07-23T01:00:40;17.30;99.90
24800;DHT22;12897;50.812;4.430;2022-07-23T01:03:07;17.30;99.90
24800;DHT22;12897;50.812;4.430;2022-07-23T01:05:35;17.30;99.90
24800;DHT22;12897;50.812;4.430;2022-07-23T01:08:03;17.20;99.90
24800;DHT22;12897;50.812;4.430;2022-07-23T01:10:32;17.10;99.90
24800;DHT22;12897;50.812;4.430;2022-07-23T01:13:05;17.00;99.90
24800;DHT22;12897;50.812;4.430;2022-07-23T01:15:35;17.10;99.90
24800;DHT22;12897;50.812;4.430;2022-07-23T01:18:05;17.00;99.90
24800;DHT22;12897;50.812;4.430;2022-07-23T01:20:32;16.90;99.90
24800;DHT22;12897;50.812;4.430;2022-07-23T01:23:00;16.90;99.90
24800;DHT22;12897;50.812;4.430;2022-07-23T01:25:28;16.80;99.90
24800;DHT22;12897;50.812;4.430;2022-07-23T01:27:55;17.00;99.90
24800;DHT22;12897;50.812;4.430;2022-07-23T01:30:23;16.90;99.90
24800;DHT22;12897;50.812;4.430;2022-07-23T01:32:50;16.90;99.90
24800;DHT22;12897;50.812;4.430;2022-07-23T01:35:25;17.00;99.90
24800;DHT22;12897;50.812;4.430;2022-07-23T01:37:53;17.00;99.90
24800;DHT22;12897;50.812;4.430;2022-07-23T01:40:20;17.00;99.90
24800;DHT22;12897;50.812;4.430;2022-07-23T01:42:48;17.00;99.90
24800;DHT22;12897;50.812;4.430;2022-07-23T01:45:15;17.10;99.90
24800;DHT22;12897;50.812;4.430;2022-07-23T01:47:43;17.00;99.90
24800;DHT22;12897;50.812;4.430;2022-07-23T01:50:11;17.00;99.90
24800;DHT22;12897;50.812;4.430;2022-07-23T01:52:38;17.10;99.90
24800;DHT22;12897;50.812;4.430;2022-07-23T01:55:07;17.10;99.90
24800;DHT22;12897;50.812;4.430;2022-07-23T01:57:35;17.10;99.90
24800;DHT22;12897;50.812;4.430;2022-07-23T02:00:03;16.90;99.90
24800;DHT22;12897;50.812;4.430;2022-07-23T02:02:30;16.90;99.90
24800;DHT22;12897;50.812;4.430;2022-07-23T02:04:58;17.00;99.90
24800;DHT22;12897;50.812;4.430;2022-07-23T02:07:25;16.90;99.90
24800;DHT22;12897;50.812;4.430;2022-07-23T02:09:53;17.00;99.90
24800;DHT22;12897;50.812;4.430;2022-07-23T02:12:20;16.90;99.90
24800;DHT22;12897;50.812;4.430;2022-07-23T02:14:48;17.00;99.90
24800;DHT22;12897;50.812;4.430;2022-07-23T02:17:15;17.00;99.90
24800;DHT22;12897;50.812;4.430;2022-07-23T02:19:43;17.00;99.90
24800;DHT22;12897;50.812;4.430;2022-07-23T02:22:10;17.10;99.90
24800;DHT22;12897;50.812;4.430;2022-07-23T02:24:38;16.90;99.90
24800;DHT22;12897;50.812;4.430;2022-07-23T02:27:06;16.80;99.90
24800;DHT22;12897;50.812;4.430;2022-07-23T02:29:33;16.90;99.90
24800;DHT22;12897;50.812;4.430;2022-07-23T02:32:00;16.80;99.90
24800;DHT22;12897;50.812;4.430;2022-07-23T02:34:28;16.60;99.90
24800;DHT22;12897;50.812;4.430;2022-07-23T02:36:56;16.60;99.90
24800;DHT22;12897;50.812;4.430;2022-07-23T02:39:23;16.50;99.90
24800;DHT22;12897;50.812;4.430;2022-07-23T02:41:51;16.40;99.90
24800;DHT22;12897;50.812;4.430;2022-07-23T02:44:18;16.30;99.90
24800;DHT22;12897;50.812;4.430;2022-07-23T02:46:46;16.20;99.90
24800;DHT22;12897;50.812;4.430;2022-07-23T02:49:13;16.20;99.90
24800;DHT22;12897;50.812;4.430;2022-07-23T02:51:41;16.20;99.90
24800;DHT22;12897;50.812;4.430;2022-07-23T02:54:09;16.20;99.90
24800;DHT22;12897;50.812;4.430;2022-07-23T02:56:36;16.20;99.90
24800;DHT22;12897;50.812;4.430;2022-07-23T02:59:04;16.20;99.90
24800;DHT22;12897;50.812;4.430;2022-07-23T03:01:32;16.10;99.90
24800;DHT22;12897;50.812;4.430;2022-07-23T03:04:00;16.10;99.90
24800;DHT22;12897;50.812;4.430;2022-07-23T03:06:28;16.10;99.90
24800;DHT22;12897;50.812;4.430;2022-07-23T03:08:55;16.20;99.90
24800;DHT22;12897;50.812;4.430;2022-07-23T03:11:23;16.20;99.90
24800;DHT22;12897;50.812;4.430;2022-07-23T03:13:50;16.30;99.90
24800;DHT22;12897;50.812;4.430;2022-07-23T03:16:18;16.30;99.90
24800;DHT22;12897;50.812;4.430;2022-07-23T03:18:46;16.10;99.90
24800;DHT22;12897;50.812;4.430;2022-07-23T03:21:13;16.10;99.90
24800;DHT22;12897;50.812;4.430;2022-07-23T03:23:41;16.00;99.90
24800;DHT22;12897;50.812;4.430;2022-07-23T03:26:08;16.00;99.90
24800;DHT22;12897;50.812;4.430;2022-07-23T03:28:36;15.90;99.90
24800;DHT22;12897;50.812;4.430;2022-07-23T03:31:03;15.90;99.90
24800;DHT22;12897;50.812;4.430;2022-07-23T03:33:31;15.90;99.90
24800;DHT22;12897;50.812;4.430;2022-07-23T03:35:58;15.90;99.90
24800;DHT22;12897;50.812;4.430;2022-07-23T03:38:26;15.90;99.90
24800;DHT22;12897;50.812;4.430;2022-07-23T03:40:54;16.00;99.90
24800;DHT22;12897;50.812;4.430;2022-07-23T03:43:21;15.90;99.90
24800;DHT22;12897;50.812;4.430;2022-07-23T03:45:50;15.90;99.90
24800;DHT22;12897;50.812;4.430;2022-07-23T03:48:18;15.90;99.90
24800;DHT22;12897;50.812;4.430;2022-07-23T03:50:46;15.80;99.90
24800;DHT22;12897;50.812;4.430;2022-07-23T03:53:13;15.80;99.90
24800;DHT22;12897;50.812;4.430;2022-07-23T03:55:41;15.70;99.90
24800;DHT22;12897;50.812;4.430;2022-07-23T03:58:08;15.80;99.90
24800;DHT22;12897;50.812;4.430;2022-07-23T04:00:36;15.70;99.90
24800;DHT22;12897;50.812;4.430;2022-07-23T04:03:03;15.80;99.90
24800;DHT22;12897;50.812;4.430;2022-07-23T04:05:31;15.70;99.90
24800;DHT22;12897;50.812;4.430;2022-07-23T04:07:58;15.70;99.90
24800;DHT22;12897;50.812;4.430;2022-07-23T04:10:26;15.80;99.90
24800;DHT22;12897;50.812;4.430;2022-07-23T04:12:53;15.90;99.90
24800;DHT22;12897;50.812;4.430;2022-07-23T04:15:21;15.90;99.90
24800;DHT22;12897;50.812;4.430;2022-07-23T04:17:48;15.90;99.90
24800;DHT22;12897;50.812;4.430;2022-07-23T04:20:16;15.90;99.90
24800;DHT22;12897;50.812;4.430;2022-07-23T04:22:43;16.00;99.90
24800;DHT22;12897;50.812;4.430;2022-07-23T04:25:11;16.10;99.90
24800;DHT22;12897;50.812;4.430;2022-07-23T04:27:40;16.00;99.90
24800;DHT22;12897;50.812;4.430;2022-07-23T04:30:09;16.10;99.90
24800;DHT22;12897;50.812;4.430;2022-07-23T04:32:36;16.10;99.90
24800;DHT22;12897;50.812;4.430;2022-07-23T04:35:04;16.20;99.90
24800;DHT22;12897;50.812;4.430;2022-07-23T04:37:32;16.30;99.90
24800;DHT22;12897;50.812;4.430;2022-07-23T04:39:59;16.40;99.90
24800;DHT22;12897;50.812;4.430;2022-07-23T04:42:27;16.50;99.90
24800;DHT22;12897;50.812;4.430;2022-07-23T04:44:54;16.70;99.90
24800;DHT22;12897;50.812;4.430;2022-07-23T04:47:22;16.80;99.90
24800;DHT22;12897;50.812;4.430;2022-07-23T04:49:49;16.80;99.90
24800;DHT22;12897;50.812;4.430;2022-07-23T04:52:17;16.90;99.90
24800;DHT22;12897;50.812;4.430;2022-07-23T04:54:44;16.90;99.90
24800;DHT22;12897;50.812;4.430;2022-07-23T04:57:12;16.90;99.90
24800;DHT22;12897;50.812;4.430;2022-07-23T04:59:39;16.90;99.90
24800;DHT22;12897;50.812;4.430;2022-07-23T05:02:07;16.90;99.90
24800;DHT22;12897;50.812;4.430;2022-07-23T05:04:34;17.00;99.90
24800;DHT22;12897;50.812;4.430;2022-07-23T05:07:03;17.10;99.90
24800;DHT22;12897;50.812;4.430;2022-07-23T05:09:30;17.10;99.90
24800;DHT22;12897;50.812;4.430;2022-07-23T05:11:58;17.20;99.90
24800;DHT22;12897;50.812;4.430;2022-07-23T05:14:26;17.30;99.90
24800;DHT22;12897;50.812;4.430;2022-07-23T05:16:54;17.50;99.90
24800;DHT22;12897;50.812;4.430;2022-07-23T05:19:22;17.60;99.90
24800;DHT22;12897;50.812;4.430;2022-07-23T05:21:49;17.70;99.90
24800;DHT22;12897;50.812;4.430;2022-07-23T05:24:17;17.80;99.90
24800;DHT22;12897;50.812;4.430;2022-07-23T05:26:44;17.80;99.90
24800;DHT22;12897;50.812;4.430;2022-07-23T05:29:12;17.80;99.90
24800;DHT22;12897;50.812;4.430;2022-07-23T05:31:39;18.00;99.90
24800;DHT22;12897;50.812;4.430;2022-07-23T05:34:07;18.20;99.90
24800;DHT22;12897;50.812;4.430;2022-07-23T05:36:35;18.50;99.90
24800;DHT22;12897;50.812;4.430;2022-07-23T05:39:04;19.00;99.90
24800;DHT22;12897;50.812;4.430;2022-07-23T05:41:31;19.40;99.90
24800;DHT22;12897;50.812;4.430;2022-07-23T05:43:59;19.60;99.90
24800;DHT22;12897;50.812;4.430;2022-07-23T05:46:26;19.50;99.90
24800;DHT22;12897;50.812;4.430;2022-07-23T05:48:54;19.50;99.90
24800;DHT22;12897;50.812;4.430;2022-07-23T05:51:22;19.70;99.90
24800;DHT22;12897;50.812;4.430;2022-07-23T05:53:51;20.00;99.90
24800;DHT22;12897;50.812;4.430;2022-07-23T05:56:19;20.00;99.90
24800;DHT22;12897;50.812;4.430;2022-07-23T05:58:47;19.80;99.90
24800;DHT22;12897;50.812;4.430;2022-07-23T06:01:15;19.80;99.90
24800;DHT22;12897;50.812;4.430;2022-07-23T06:03:42;19.90;99.90
24800;DHT22;12897;50.812;4.430;2022-07-23T06:06:10;20.10;99.90
24800;DHT22;12897;50.812;4.430;2022-07-23T06:08:38;20.50;99.90
24800;DHT22;12897;50.812;4.430;2022-07-23T06:11:05;20.90;99.90
24800;DHT22;12897;50.812;4.430;2022-07-23T06:13:33;21.10;99.90
24800;DHT22;12897;50.812;4.430;2022-07-23T06:16:00;21.50;99.90
24800;DHT22;12897;50.812;4.430;2022-07-23T06:18:28;21.50;99.90
24800;DHT22;12897;50.812;4.430;2022-07-23T06:20:55;21.50;99.90
24800;DHT22;12897;50.812;4.430;2022-07-23T06:23:23;21.30;99.90
24800;DHT22;12897;50.812;4.430;2022-07-23T06:25:51;21.40;99.90
24800;DHT22;12897;50.812;4.430;2022-07-23T06:28:18;21.40;99.90
24800;DHT22;12897;50.812;4.430;2022-07-23T06:30:46;21.30;99.90
24800;DHT22;12897;50.812;4.430;2022-07-23T06:33:13;21.50;99.90
24800;DHT22;12897;50.812;4.430;2022-07-23T06:35:41;21.70;99.90
24800;DHT22;12897;50.812;4.430;2022-07-23T06:38:08;21.70;99.90
24800;DHT22;12897;50.812;4.430;2022-07-23T06:40:36;22.00;99.90
24800;DHT22;12897;50.812;4.430;2022-07-23T06:43:03;21.80;99.90
24800;DHT22;12897;50.812;4.430;2022-07-23T06:45:31;21.80;99.90
24800;DHT22;12897;50.812;4.430;2022-07-23T06:47:58;21.60;99.90
24800;DHT22;12897;50.812;4.430;2022-07-23T06:50:26;21.40;99.90
24800;DHT22;12897;50.812;4.430;2022-07-23T06:52:54;21.20;99.90
24800;DHT22;12897;50.812;4.430;2022-07-23T06:55:21;21.00;99.90
24800;DHT22;12897;50.812;4.430;2022-07-23T06:57:49;20.90;99.90
24800;DHT22;12897;50.812;4.430;2022-07-23T07:00:16;20.70;99.90
24800;DHT22;12897;50.812;4.430;2022-07-23T07:02:44;20.70;99.90
24800;DHT22;12897;50.812;4.430;2022-07-23T07:05:11;20.80;99.90
24800;DHT22;12897;50.812;4.430;2022-07-23T07:07:39;20.60;99.90
24800;DHT22;12897;50.812;4.430;2022-07-23T07:10:07;20.80;99.90
24800;DHT22;12897;50.812;4.430;2022-07-23T07:12:34;20.90;99.90
24800;DHT22;12897;50.812;4.430;2022-07-23T07:15:02;20.90;99.90
24800;DHT22;12897;50.812;4.430;2022-07-23T07:17:30;21.10;99.90
24800;DHT22;12897;50.812;4.430;2022-07-23T07:19:57;21.20;99.90
24800;DHT22;12897;50.812;4.430;2022-07-23T07:22:25;21.10;99.90
24800;DHT22;12897;50.812;4.430;2022-07-23T07:24:53;21.20;99.90
24800;DHT22;12897;50.812;4.430;2022-07-23T07:27:20;21.20;99.90
24800;DHT22;12897;50.812;4.430;2022-07-23T07:29:48;21.20;99.90
24800;DHT22;12897;50.812;4.430;2022-07-23T07:32:16;21.30;99.90
24800;DHT22;12897;50.812;4.430;2022-07-23T07:34:43;21.40;99.90
24800;DHT22;12897;50.812;4.430;2022-07-23T07:37:11;21.30;99.90
24800;DHT22;12897;50.812;4.430;2022-07-23T07:39:38;21.30;99.90
24800;DHT22;12897;50.812;4.430;2022-07-23T07:42:06;21.30;99.90
24800;DHT22;12897;50.812;4.430;2022-07-23T07:44:34;21.40;99.90
24800;DHT22;12897;50.812;4.430;2022-07-23T07:47:01;21.40;99.90
24800;DHT22;12897;50.812;4.430;2022-07-23T07:49:29;21.50;99.90
24800;DHT22;12897;50.812;4.430;2022-07-23T07:51:56;21.50;99.90
24800;DHT22;12897;50.812;4.430;2022-07-23T07:54:24;21.70;99.90
24800;DHT22;12897;50.812;4.430;2022-07-23T07:56:51;21.80;99.90
24800;DHT22;12897;50.812;4.430;2022-07-23T07:59:19;22.00;99.90
24800;DHT22;12897;50.812;4.430;2022-07-23T08:01:46;22.00;99.90
24800;DHT22;12897;50.812;4.430;2022-07-23T08:04:14;22.10;99.90
24800;DHT22;12897;50.812;4.430;2022-07-23T08:06:41;22.20;99.90
24800;DHT22;12897;50.812;4.430;2022-07-23T08:09:09;22.20;99.90
24800;DHT22;12897;50.812;4.430;2022-07-23T08:11:37;22.10;99.90
24800;DHT22;12897;50.812;4.430;2022-07-23T08:14:04;22.20;99.90
24800;DHT22;12897;50.812;4.430;2022-07-23T08:16:32;22.20;99.90
24800;DHT22;12897;50.812;4.430;2022-07-23T08:18:59;22.30;99.90
24800;DHT22;12897;50.812;4.430;2022-07-23T08:21:27;22.30;99.90
24800;DHT22;12897;50.812;4.430;2022-07-23T08:23:54;22.40;99.90
24800;DHT22;12897;50.812;4.430;2022-07-23T08:26:22;22.50;99.90
24800;DHT22;12897;50.812;4.430;2022-07-23T08:28:49;22.60;99.90
24800;DHT22;12897;50.812;4.430;2022-07-23T08:31:17;22.40;99.90
24800;DHT22;12897;50.812;4.430;2022-07-23T08:33:45;22.20;99.90
24800;DHT22;12897;50.812;4.430;2022-07-23T08:36:12;22.40;99.90
24800;DHT22;12897;50.812;4.430;2022-07-23T08:38:40;22.50;99.90
24800;DHT22;12897;50.812;4.430;2022-07-23T08:41:09;22.50;99.90
24800;DHT22;12897;50.812;4.430;2022-07-23T08:43:37;22.50;99.90
24800;DHT22;12897;50.812;4.430;2022-07-23T08:46:06;22.80;99.90
24800;DHT22;12897;50.812;4.430;2022-07-23T08:48:35;22.90;99.90
24800;DHT22;12897;50.812;4.430;2022-07-23T08:51:04;23.10;99.90
24800;DHT22;12897;50.812;4.430;2022-07-23T08:53:33;23.10;99.90
24800;DHT22;12897;50.812;4.430;2022-07-23T08:56:05;22.90;99.90
24800;DHT22;12897;50.812;4.430;2022-07-23T08:58:32;22.50;99.90
24800;DHT22;12897;50.812;4.430;2022-07-23T09:01:00;22.40;99.90
24800;DHT22;12897;50.812;4.430;2022-07-23T09:03:31;22.70;99.90
24800;DHT22;12897;50.812;4.430;2022-07-23T09:05:59;22.70;99.90
24800;DHT22;12897;50.812;4.430;2022-07-23T09:08:41;22.90;99.90
24800;DHT22;12897;50.812;4.430;2022-07-23T09:11:10;23.00;99.90
24800;DHT22;12897;50.812;4.430;2022-07-23T09:16:19;22.90;99.90
24800;DHT22;12897;50.812;4.430;2022-07-23T09:18:54;23.00;99.90
24800;DHT22;12897;50.812;4.430;2022-07-23T09:21:27;23.10;99.90
24800;DHT22;12897;50.812;4.430;2022-07-23T09:24:00;23.30;99.90
24800;DHT22;12897;50.812;4.430;2022-07-23T09:26:32;23.50;99.90
24800;DHT22;12897;50.812;4.430;2022-07-23T09:29:16;23.60;99.90
24800;DHT22;12897;50.812;4.430;2022-07-23T09:31:49;23.60;99.90
24800;DHT22;12897;50.812;4.430;2022-07-23T09:34:25;23.60;99.90
24800;DHT22;12897;50.812;4.430;2022-07-23T09:36:56;23.60;99.90
24800;DHT22;12897;50.812;4.430;2022-07-23T09:39:31;23.30;99.90
24800;DHT22;12897;50.812;4.430;2022-07-23T09:42:13;23.30;99.90
24800;DHT22;12897;50.812;4.430;2022-07-23T09:44:42;23.40;99.90
24800;DHT22;12897;50.812;4.430;2022-07-23T09:47:10;23.30;99.90
24800;DHT22;12897;50.812;4.430;2022-07-23T09:49:38;23.20;99.90
24800;DHT22;12897;50.812;4.430;2022-07-23T09:52:06;23.10;99.90
24800;DHT22;12897;50.812;4.430;2022-07-23T09:54:38;23.20;99.90
24800;DHT22;12897;50.812;4.430;2022-07-23T09:57:09;23.30;99.90
24800;DHT22;12897;50.812;4.430;2022-07-23T09:59:39;23.60;99.90
24800;DHT22;12897;50.812;4.430;2022-07-23T10:02:09;23.60;99.90
24800;DHT22;12897;50.812;4.430;2022-07-23T10:04:39;23.50;99.90
24800;DHT22;12897;50.812;4.430;2022-07-23T10:07:09;23.60;99.90
24800;DHT22;12897;50.812;4.430;2022-07-23T10:09:41;23.80;99.90
24800;DHT22;12897;50.812;4.430;2022-07-23T10:12:14;23.90;99.90
24800;DHT22;12897;50.812;4.430;2022-07-23T10:14:48;24.00;99.90
24800;DHT22;12897;50.812;4.430;2022-07-23T10:17:17;23.90;99.90
24800;DHT22;12897;50.812;4.430;2022-07-23T10:19:45;23.90;99.90
24800;DHT22;12897;50.812;4.430;2022-07-23T10:22:24;23.80;99.90
24800;DHT22;12897;50.812;4.430;2022-07-23T10:28:12;24.30;99.90
24800;DHT22;12897;50.812;4.430;2022-07-23T10:30:45;24.00;99.90
24800;DHT22;12897;50.812;4.430;2022-07-23T10:36:42;24.00;99.90
24800;DHT22;12897;50.812;4.430;2022-07-23T10:41:38;24.10;99.90
24800;DHT22;12897;50.812;4.430;2022-07-23T10:44:11;24.10;99.90
24800;DHT22;12897;50.812;4.430;2022-07-23T10:47:00;24.30;99.90
24800;DHT22;12897;50.812;4.430;2022-07-23T10:49:51;24.30;99.90
24800;DHT22;12897;50.812;4.430;2022-07-23T10:52:23;24.10;99.90
24800;DHT22;12897;50.812;4.430;2022-07-23T10:54:54;24.00;99.90
24800;DHT22;12897;50.812;4.430;2022-07-23T10:57:26;24.20;99.90
24800;DHT22;12897;50.812;4.430;2022-07-23T11:02:35;24.50;99.90
24800;DHT22;12897;50.812;4.430;2022-07-23T11:05:09;24.70;99.90
24800;DHT22;12897;50.812;4.430;2022-07-23T11:13:33;25.00;99.90
24800;DHT22;12897;50.812;4.430;2022-07-23T11:16:21;24.90;99.90
24800;DHT22;12897;50.812;4.430;2022-07-23T11:18:54;25.20;99.90
24800;DHT22;12897;50.812;4.430;2022-07-23T11:24:00;25.10;99.90
24800;DHT22;12897;50.812;4.430;2022-07-23T11:26:43;25.20;99.90
24800;DHT22;12897;50.812;4.430;2022-07-23T11:32:17;25.30;99.90
24800;DHT22;12897;50.812;4.430;2022-07-23T11:34:42;25.10;99.90
24800;DHT22;12897;50.812;4.430;2022-07-23T11:37:12;25.30;99.90
24800;DHT22;12897;50.812;4.430;2022-07-23T11:39:40;25.40;99.90
24800;DHT22;12897;50.812;4.430;2022-07-23T11:42:08;25.40;99.90
24800;DHT22;12897;50.812;4.430;2022-07-23T11:44:37;25.70;99.90
24800;DHT22;12897;50.812;4.430;2022-07-23T11:47:05;25.70;99.90
24800;DHT22;12897;50.812;4.430;2022-07-23T11:49:33;25.50;99.90
24800;DHT22;12897;50.812;4.430;2022-07-23T11:52:14;25.60;99.90
24800;DHT22;12897;50.812;4.430;2022-07-23T11:54:49;25.60;99.90
24800;DHT22;12897;50.812;4.430;2022-07-23T11:57:18;25.50;99.90
24800;DHT22;12897;50.812;4.430;2022-07-23T11:59:47;25.60;99.90
24800;DHT22;12897;50.812;4.430;2022-07-23T12:02:16;25.80;99.90
24800;DHT22;12897;50.812;4.430;2022-07-23T12:04:48;25.80;99.90
24800;DHT22;12897;50.812;4.430;2022-07-23T12:07:37;25.50;99.90
24800;DHT22;12897;50.812;4.430;2022-07-23T12:12:40;25.40;99.90
24800;DHT22;12897;50.812;4.430;2022-07-23T12:15:14;25.00;99.90
24800;DHT22;12897;50.812;4.430;2022-07-23T12:17:44;24.90;99.90
24800;DHT22;12897;50.812;4.430;2022-07-23T12:20:15;25.10;99.90
24800;DHT22;12897;50.812;4.430;2022-07-23T12:22:45;25.20;99.90
24800;DHT22;12897;50.812;4.430;2022-07-23T12:25:15;25.40;99.90
24800;DHT22;12897;50.812;4.430;2022-07-23T12:27:44;25.30;99.90
24800;DHT22;12897;50.812;4.430;2022-07-23T12:30:19;25.00;99.90
24800;DHT22;12897;50.812;4.430;2022-07-23T12:32:49;25.00;99.90
24800;DHT22;12897;50.812;4.430;2022-07-23T12:35:17;25.30;99.90
24800;DHT22;12897;50.812;4.430;2022-07-23T12:37:47;25.60;99.90
24800;DHT22;12897;50.812;4.430;2022-07-23T12:40:35;25.90;99.90
24800;DHT22;12897;50.812;4.430;2022-07-23T12:43:06;26.10;99.90
24800;DHT22;12897;50.812;4.430;2022-07-23T12:45:56;26.00;99.90
24800;DHT22;12897;50.812;4.430;2022-07-23T12:48:28;26.10;99.90
24800;DHT22;12897;50.812;4.430;2022-07-23T12:53:31;26.00;99.90
24800;DHT22;12897;50.812;4.430;2022-07-23T12:58:52;26.40;99.90
24800;DHT22;12897;50.812;4.430;2022-07-23T13:04:12;26.60;99.90
24800;DHT22;12897;50.812;4.430;2022-07-23T13:06:46;26.60;99.90
24800;DHT22;12897;50.812;4.430;2022-07-23T13:09:16;26.70;99.90
24800;DHT22;12897;50.812;4.430;2022-07-23T13:11:45;26.40;99.90
24800;DHT22;12897;50.812;4.430;2022-07-23T13:14:13;26.50;99.90
24800;DHT22;12897;50.812;4.430;2022-07-23T13:16:41;26.40;99.90
24800;DHT22;12897;50.812;4.430;2022-07-23T13:19:09;26.80;99.90
24800;DHT22;12897;50.812;4.430;2022-07-23T13:21:38;26.90;99.90
24800;DHT22;12897;50.812;4.430;2022-07-23T13:24:06;27.00;99.90
24800;DHT22;12897;50.812;4.430;2022-07-23T13:26:36;27.20;99.90
24800;DHT22;12897;50.812;4.430;2022-07-23T13:29:06;27.50;99.90
24800;DHT22;12897;50.812;4.430;2022-07-23T13:31:34;27.30;99.90
24800;DHT22;12897;50.812;4.430;2022-07-23T13:34:03;27.10;99.90
24800;DHT22;12897;50.812;4.430;2022-07-23T13:36:30;27.10;99.90
24800;DHT22;12897;50.812;4.430;2022-07-23T13:38:58;27.00;99.90
24800;DHT22;12897;50.812;4.430;2022-07-23T13:41:25;26.90;99.90
24800;DHT22;12897;50.812;4.430;2022-07-23T13:43:53;26.80;99.90
24800;DHT22;12897;50.812;4.430;2022-07-23T13:46:22;26.70;99.90
24800;DHT22;12897;50.812;4.430;2022-07-23T13:48:49;26.90;99.90
24800;DHT22;12897;50.812;4.430;2022-07-23T13:51:17;27.20;99.90
24800;DHT22;12897;50.812;4.430;2022-07-23T13:53:46;27.20;99.90
24800;DHT22;12897;50.812;4.430;2022-07-23T13:56:13;27.20;99.90
24800;DHT22;12897;50.812;4.430;2022-07-23T13:58:41;27.50;99.90
24800;DHT22;12897;50.812;4.430;2022-07-23T14:01:08;27.60;99.90
24800;DHT22;12897;50.812;4.430;2022-07-23T14:03:36;27.70;99.90
24800;DHT22;12897;50.812;4.430;2022-07-23T14:06:04;27.40;99.90
24800;DHT22;12897;50.812;4.430;2022-07-23T14:08:32;27.70;99.90
24800;DHT22;12897;50.812;4.430;2022-07-23T14:10:59;27.80;99.30
24800;DHT22;12897;50.812;4.430;2022-07-23T14:13:27;27.70;99.90
24800;DHT22;12897;50.812;4.430;2022-07-23T14:15:55;27.80;98.50
24800;DHT22;12897;50.812;4.430;2022-07-23T14:18:22;27.90;98.90
24800;DHT22;12897;50.812;4.430;2022-07-23T14:20:50;28.00;97.40
24800;DHT22;12897;50.812;4.430;2022-07-23T14:23:17;28.20;97.40
24800;DHT22;12897;50.812;4.430;2022-07-23T14:25:45;28.40;96.30
24800;DHT22;12897;50.812;4.430;2022-07-23T14:28:12;28.50;95.70
24800;DHT22;12897;50.812;4.430;2022-07-23T14:30:40;28.30;95.70
24800;DHT22;12897;50.812;4.430;2022-07-23T14:33:09;28.20;95.60
24800;DHT22;12897;50.812;4.430;2022-07-23T14:35:40;28.30;95.40
24800;DHT22;12897;50.812;4.430;2022-07-23T14:38:08;28.20;96.00
24800;DHT22;12897;50.812;4.430;2022-07-23T14:40:36;28.40;94.70
24800;DHT22;12897;50.812;4.430;2022-07-23T14:43:03;28.40;94.40
24800;DHT22;12897;50.812;4.430;2022-07-23T14:45:31;28.60;94.20
24800;DHT22;12897;50.812;4.430;2022-07-23T14:47:58;28.50;94.20
24800;DHT22;12897;50.812;4.430;2022-07-23T14:50:26;28.30;94.40
24800;DHT22;12897;50.812;4.430;2022-07-23T14:52:54;28.10;94.60
24800;DHT22;12897;50.812;4.430;2022-07-23T14:55:22;28.20;94.60
24800;DHT22;12897;50.812;4.430;2022-07-23T14:57:49;28.30;94.40
24800;DHT22;12897;50.812;4.430;2022-07-23T15:00:17;28.20;93.80
24800;DHT22;12897;50.812;4.430;2022-07-23T15:02:45;28.20;93.90
24800;DHT22;12897;50.812;4.430;2022-07-23T15:05:12;28.50;93.20
24800;DHT22;12897;50.812;4.430;2022-07-23T15:07:40;28.40;93.20
24800;DHT22;12897;50.812;4.430;2022-07-23T15:10:08;28.20;93.90
24800;DHT22;12897;50.812;4.430;2022-07-23T15:12:35;28.00;94.00
24800;DHT22;12897;50.812;4.430;2022-07-23T15:15:03;27.90;94.60
24800;DHT22;12897;50.812;4.430;2022-07-23T15:17:32;28.00;94.80
24800;DHT22;12897;50.812;4.430;2022-07-23T15:20:00;28.30;94.90
24800;DHT22;12897;50.812;4.430;2022-07-23T15:22:27;28.50;94.00
24800;DHT22;12897;50.812;4.430;2022-07-23T15:24:55;28.70;94.00
24800;DHT22;12897;50.812;4.430;2022-07-23T15:27:22;28.90;92.60
24800;DHT22;12897;50.812;4.430;2022-07-23T15:29:50;28.70;93.00
24800;DHT22;12897;50.812;4.430;2022-07-23T15:32:17;28.60;92.50
24800;DHT22;12897;50.812;4.430;2022-07-23T15:34:45;28.40;93.30
24800;DHT22;12897;50.812;4.430;2022-07-23T15:37:13;28.20;93.90
24800;DHT22;12897;50.812;4.430;2022-07-23T15:39:41;27.90;94.00
24800;DHT22;12897;50.812;4.430;2022-07-23T15:42:09;28.00;94.20
24800;DHT22;12897;50.812;4.430;2022-07-23T15:44:36;27.80;94.20
24800;DHT22;12897;50.812;4.430;2022-07-23T15:47:05;27.80;94.30
24800;DHT22;12897;50.812;4.430;2022-07-23T15:49:34;27.70;94.50
24800;DHT22;12897;50.812;4.430;2022-07-23T15:52:01;27.80;94.40
24800;DHT22;12897;50.812;4.430;2022-07-23T15:54:29;27.50;94.50
24800;DHT22;12897;50.812;4.430;2022-07-23T15:56:56;27.60;94.60
24800;DHT22;12897;50.812;4.430;2022-07-23T15:59:24;27.40;94.60
24800;DHT22;12897;50.812;4.430;2022-07-23T16:01:51;27.60;94.30
24800;DHT22;12897;50.812;4.430;2022-07-23T16:04:19;27.60;94.20
24800;DHT22;12897;50.812;4.430;2022-07-23T16:06:47;27.70;94.30
24800;DHT22;12897;50.812;4.430;2022-07-23T16:09:14;27.70;94.20
24800;DHT22;12897;50.812;4.430;2022-07-23T16:11:42;27.90;94.40
24800;DHT22;12897;50.812;4.430;2022-07-23T16:14:10;27.90;94.20
24800;DHT22;12897;50.812;4.430;2022-07-23T16:16:37;27.70;94.50